Embarrass, Wisconsin
Current Conditions -  °F | °C
As of 8:15 AM on Sunday 25 Jan 2015 (Local Time) from KCLI Reporting Station
Overcast Overcast  
Wind Chill:   Ceiling: 2300
Heat Index: 19°   Visibility: 10mi
Dew Point: 10°   Wind: 16mph
Humidity: 68%   Direction: 70°ENE
Pressure: 29.96"   Gusts: 22mph
Location:  44.67°N, 88.71°W
Report Text: KCLI 251415Z AUTO 07014G19KT 10SM OVC023 M07/M12 A2996 RMK AO2
Loading
Personal Weather Stations






























Interactive Weather Map New forecast layout! Learn more

10-Day Weather Forecast

Advertisements
Track Severe Weather on mobile